sensor_id;sensor_type;location;lat;lon;timestamp;P1;durP1;ratioP1;P2;durP2;ratioP2
1999;SDS011;1001;48.87406500;9.59633600;2022-11-20T00:00:09;20.40;;;13.67;;
1999;SDS011;1001;48.87406500;9.59633600;2022-11-20T00:03:02;20.67;;;14.23;;
1999;SDS011;1001;48.87406500;9.59633600;2022-11-20T00:05:44;21.60;;;13.33;;
1999;SDS011;1001;48.87406500;9.59633600;2022-11-20T00:08:21;18.97;;;12.40;;
1999;SDS011;1001;48.87406500;9.59633600;2022-11-20T00:10:55;18.20;;;12.47;;
1999;SDS011;1001;48.87406500;9.59633600;2022-11-20T00:13:23;18.90;;;13.00;;
1999;SDS011;1001;48.87406500;9.59633600;2022-11-20T00:15:56;17.70;;;12.00;;
1999;SDS011;1001;48.87406500;9.59633600;2022-11-20T00:18:29;19.40;;;11.57;;
1999;SDS011;1001;48.87406500;9.59633600;2022-11-20T00:24:22;17.30;;;12.70;;
1999;SDS011;1001;48.87406500;9.59633600;2022-11-20T00:27:06;24.90;;;12.70;;
1999;SDS011;1001;48.87406500;9.59633600;2022-11-20T00:29:52;18.57;;;13.20;;
1999;SDS011;1001;48.87406500;9.59633600;2022-11-20T00:32:51;18.43;;;12.57;;
1999;SDS011;1001;48.87406500;9.59633600;2022-11-20T00:35:29;15.83;;;11.90;;
1999;SDS011;1001;48.87406500;9.59633600;2022-11-20T00:41:04;15.43;;;11.40;;
1999;SDS011;1001;48.87406500;9.59633600;2022-11-20T00:43:46;13.43;;;11.07;;
1999;SDS011;1001;48.87406500;9.59633600;2022-11-20T00:46:23;13.60;;;10.37;;
1999;SDS011;1001;48.87406500;9.59633600;2022-11-20T00:49:20;19.20;;;11.63;;
1999;SDS011;1001;48.87406500;9.59633600;2022-11-20T00:51:58;14.40;;;10.60;;
1999;SDS011;1001;48.87406500;9.59633600;2022-11-20T00:54:53;16.43;;;11.07;;
1999;SDS011;1001;48.87406500;9.59633600;2022-11-20T00:57:39;18.10;;;11.00;;
1999;SDS011;1001;48.87406500;9.59633600;2022-11-20T01:00:43;15.47;;;11.30;;
1999;SDS011;1001;48.87406500;9.59633600;2022-11-20T01:03:35;16.23;;;10.37;;
1999;SDS011;1001;48.87406500;9.59633600;2022-11-20T01:06:11;16.90;;;11.87;;
1999;SDS011;1001;48.87406500;9.59633600;2022-11-20T01:08:52;13.77;;;10.60;;
1999;SDS011;1001;48.87406500;9.59633600;2022-11-20T01:14:29;14.13;;;10.90;;
1999;SDS011;1001;48.87406500;9.59633600;2022-11-20T01:17:27;14.40;;;10.10;;
1999;SDS011;1001;48.87406500;9.59633600;2022-11-20T01:20:02;16.17;;;10.30;;
1999;SDS011;1001;48.87406500;9.59633600;2022-11-20T01:22:45;15.00;;;10.70;;
1999;SDS011;1001;48.87406500;9.59633600;2022-11-20T01:25:12;14.87;;;9.93;;
1999;SDS011;1001;48.87406500;9.59633600;2022-11-20T01:28:00;13.57;;;10.33;;
1999;SDS011;1001;48.87406500;9.59633600;2022-11-20T01:30:50;15.47;;;10.43;;
1999;SDS011;1001;48.87406500;9.59633600;2022-11-20T01:33:21;14.90;;;10.03;;
1999;SDS011;1001;48.87406500;9.59633600;2022-11-20T01:38:53;12.90;;;9.63;;
1999;SDS011;1001;48.87406500;9.59633600;2022-11-20T01:41:27;13.93;;;9.27;;
1999;SDS011;1001;48.87406500;9.59633600;2022-11-20T01:44:17;15.47;;;9.07;;
1999;SDS011;1001;48.87406500;9.59633600;2022-11-20T01:46:52;11.47;;;8.90;;
1999;SDS011;1001;48.87406500;9.59633600;2022-11-20T01:49:37;10.70;;;8.10;;
1999;SDS011;1001;48.87406500;9.59633600;2022-11-20T01:52:16;12.07;;;8.67;;
1999;SDS011;1001;48.87406500;9.59633600;2022-11-20T01:54:47;15.03;;;10.47;;
1999;SDS011;1001;48.87406500;9.59633600;2022-11-20T01:57:20;13.80;;;9.07;;
1999;SDS011;1001;48.87406500;9.59633600;2022-11-20T02:00:04;14.67;;;9.17;;
1999;SDS011;1001;48.87406500;9.59633600;2022-11-20T02:02:36;12.10;;;9.37;;
1999;SDS011;1001;48.87406500;9.59633600;2022-11-20T02:05:09;14.50;;;9.77;;
1999;SDS011;1001;48.87406500;9.59633600;2022-11-20T02:07:43;12.33;;;8.47;;
1999;SDS011;1001;48.87406500;9.59633600;2022-11-20T02:10:17;12.17;;;8.90;;
1999;SDS011;1001;48.87406500;9.59633600;2022-11-20T02:12:52;10.70;;;8.33;;
1999;SDS011;1001;48.87406500;9.59633600;2022-11-20T02:15:46;12.60;;;9.70;;
1999;SDS011;1001;48.87406500;9.59633600;2022-11-20T02:18:17;11.77;;;8.80;;
1999;SDS011;1001;48.87406500;9.59633600;2022-11-20T02:20:46;12.97;;;8.93;;
1999;SDS011;1001;48.87406500;9.59633600;2022-11-20T02:23:17;11.50;;;9.40;;
1999;SDS011;1001;48.87406500;9.59633600;2022-11-20T02:25:52;12.10;;;7.80;;
1999;SDS011;1001;48.87406500;9.59633600;2022-11-20T02:28:23;11.23;;;7.93;;
1999;SDS011;1001;48.87406500;9.59633600;2022-11-20T02:30:49;9.27;;;6.63;;
1999;SDS011;1001;48.87406500;9.59633600;2022-11-20T02:33:18;12.77;;;7.77;;
1999;SDS011;1001;48.87406500;9.59633600;2022-11-20T02:35:47;8.10;;;6.50;;
1999;SDS011;1001;48.87406500;9.59633600;2022-11-20T02:38:16;11.03;;;6.50;;
1999;SDS011;1001;48.87406500;9.59633600;2022-11-20T02:41:11;8.87;;;5.90;;
1999;SDS011;1001;48.87406500;9.59633600;2022-11-20T02:43:43;7.77;;;6.80;;
1999;SDS011;1001;48.87406500;9.59633600;2022-11-20T02:46:17;9.77;;;7.10;;
1999;SDS011;1001;48.87406500;9.59633600;2022-11-20T02:48:45;8.10;;;6.30;;
1999;SDS011;1001;48.87406500;9.59633600;2022-11-20T02:51:14;8.13;;;6.33;;
1999;SDS011;1001;48.87406500;9.59633600;2022-11-20T02:53:41;9.13;;;6.60;;
1999;SDS011;1001;48.87406500;9.59633600;2022-11-20T02:56:08;7.40;;;5.60;;
1999;SDS011;1001;48.87406500;9.59633600;2022-11-20T02:58:39;8.37;;;5.43;;
1999;SDS011;1001;48.87406500;9.59633600;2022-11-20T03:01:08;9.10;;;5.73;;
1999;SDS011;1001;48.87406500;9.59633600;2022-11-20T03:03:37;8.33;;;6.27;;
1999;SDS011;1001;48.87406500;9.59633600;2022-11-20T03:06:04;8.40;;;6.07;;
1999;SDS011;1001;48.87406500;9.59633600;2022-11-20T03:08:32;9.40;;;7.23;;
1999;SDS011;1001;48.87406500;9.59633600;2022-11-20T03:11:01;7.53;;;5.40;;
1999;SDS011;1001;48.87406500;9.59633600;2022-11-20T03:13:31;6.97;;;6.20;;
1999;SDS011;1001;48.87406500;9.59633600;2022-11-20T03:15:58;6.93;;;5.40;;
1999;SDS011;1001;48.87406500;9.59633600;2022-11-20T03:18:30;7.17;;;5.90;;
1999;SDS011;1001;48.87406500;9.59633600;2022-11-20T03:21:04;7.13;;;5.50;;
1999;SDS011;1001;48.87406500;9.59633600;2022-11-20T03:23:37;10.40;;;5.90;;
1999;SDS011;1001;48.87406500;9.59633600;2022-11-20T03:26:19;8.20;;;5.90;;
1999;SDS011;1001;48.87406500;9.59633600;2022-11-20T03:28:51;8.20;;;5.20;;
1999;SDS011;1001;48.87406500;9.59633600;2022-11-20T03:31:22;8.37;;;5.90;;
1999;SDS011;1001;48.87406500;9.59633600;2022-11-20T03:33:50;6.40;;;5.40;;
1999;SDS011;1001;48.87406500;9.59633600;2022-11-20T03:36:18;6.00;;;5.17;;
1999;SDS011;1001;48.87406500;9.59633600;2022-11-20T03:38:45;5.70;;;4.80;;
1999;SDS011;1001;48.87406500;9.59633600;2022-11-20T03:41:13;12.23;;;5.60;;
1999;SDS011;1001;48.87406500;9.59633600;2022-11-20T03:43:49;5.93;;;5.20;;
1999;SDS011;1001;48.87406500;9.59633600;2022-11-20T03:46:18;5.77;;;5.07;;
1999;SDS011;1001;48.87406500;9.59633600;2022-11-20T03:48:44;7.87;;;5.33;;
1999;SDS011;1001;48.87406500;9.59633600;2022-11-20T03:51:12;7.00;;;5.53;;
1999;SDS011;1001;48.87406500;9.59633600;2022-11-20T03:53:42;5.80;;;4.70;;
1999;SDS011;1001;48.87406500;9.59633600;2022-11-20T03:56:12;7.17;;;5.67;;
1999;SDS011;1001;48.87406500;9.59633600;2022-11-20T03:58:41;5.77;;;5.10;;
1999;SDS011;1001;48.87406500;9.59633600;2022-11-20T04:01:11;7.03;;;5.67;;
1999;SDS011;1001;48.87406500;9.59633600;2022-11-20T04:03:41;6.70;;;5.20;;
1999;SDS011;1001;48.87406500;9.59633600;2022-11-20T04:06:09;5.83;;;5.23;;
1999;SDS011;1001;48.87406500;9.59633600;2022-11-20T04:08:37;6.73;;;4.70;;
1999;SDS011;1001;48.87406500;9.59633600;2022-11-20T04:11:09;10.13;;;5.20;;
1999;SDS011;1001;48.87406500;9.59633600;2022-11-20T04:13:38;7.60;;;5.63;;
1999;SDS011;1001;48.87406500;9.59633600;2022-11-20T04:16:09;7.70;;;4.40;;
1999;SDS011;1001;48.87406500;9.59633600;2022-11-20T04:18:36;6.50;;;4.90;;
1999;SDS011;1001;48.87406500;9.59633600;2022-11-20T04:21:04;11.40;;;5.40;;
1999;SDS011;1001;48.87406500;9.59633600;2022-11-20T04:23:31;5.97;;;4.70;;
1999;SDS011;1001;48.87406500;9.59633600;2022-11-20T04:26:02;6.73;;;5.43;;
1999;SDS011;1001;48.87406500;9.59633600;2022-11-20T04:28:30;5.90;;;5.07;;
1999;SDS011;1001;48.87406500;9.59633600;2022-11-20T04:31:03;6.50;;;5.47;;
1999;SDS011;1001;48.87406500;9.59633600;2022-11-20T04:33:35;7.30;;;5.00;;
1999;SDS011;1001;48.87406500;9.59633600;2022-11-20T04:36:04;6.03;;;4.30;;
1999;SDS011;1001;48.87406500;9.59633600;2022-11-20T04:38:32;6.90;;;4.70;;
1999;SDS011;1001;48.87406500;9.59633600;2022-11-20T04:40:59;6.23;;;4.63;;
1999;SDS011;1001;48.87406500;9.59633600;2022-11-20T04:43:29;5.53;;;4.87;;
1999;SDS011;1001;48.87406500;9.59633600;2022-11-20T04:45:56;8.03;;;5.43;;
1999;SDS011;1001;48.87406500;9.59633600;2022-11-20T04:48:24;4.90;;;4.33;;
1999;SDS011;1001;48.87406500;9.59633600;2022-11-20T04:50:53;6.03;;;5.07;;
1999;SDS011;1001;48.87406500;9.59633600;2022-11-20T04:53:20;6.40;;;5.03;;
1999;SDS011;1001;48.87406500;9.59633600;2022-11-20T04:55:47;6.17;;;4.90;;
1999;SDS011;1001;48.87406500;9.59633600;2022-11-20T04:58:14;7.10;;;5.40;;
1999;SDS011;1001;48.87406500;9.59633600;2022-11-20T05:00:44;4.97;;;4.47;;
1999;SDS011;1001;48.87406500;9.59633600;2022-11-20T05:03:11;8.20;;;6.00;;
1999;SDS011;1001;48.87406500;9.59633600;2022-11-20T05:05:38;6.00;;;4.90;;
1999;SDS011;1001;48.87406500;9.59633600;2022-11-20T05:08:06;5.23;;;4.73;;
1999;SDS011;1001;48.87406500;9.59633600;2022-11-20T05:10:32;7.90;;;4.73;;
1999;SDS011;1001;48.87406500;9.59633600;2022-11-20T05:12:59;4.90;;;4.40;;
1999;SDS011;1001;48.87406500;9.59633600;2022-11-20T05:15:26;7.77;;;5.23;;
1999;SDS011;1001;48.87406500;9.59633600;2022-11-20T05:17:54;5.83;;;5.23;;
1999;SDS011;1001;48.87406500;9.59633600;2022-11-20T05:20:21;6.20;;;4.87;;
1999;SDS011;1001;48.87406500;9.59633600;2022-11-20T05:22:48;7.80;;;4.73;;
1999;SDS011;1001;48.87406500;9.59633600;2022-11-20T05:25:16;6.37;;;4.97;;
1999;SDS011;1001;48.87406500;9.59633600;2022-11-20T05:27:45;6.23;;;4.40;;
1999;SDS011;1001;48.87406500;9.59633600;2022-11-20T05:30:12;6.77;;;4.17;;
1999;SDS011;1001;48.87406500;9.59633600;2022-11-20T05:32:39;5.10;;;4.30;;
1999;SDS011;1001;48.87406500;9.59633600;2022-11-20T05:35:06;5.73;;;4.70;;
1999;SDS011;1001;48.87406500;9.59633600;2022-11-20T05:37:33;8.20;;;5.40;;
1999;SDS011;1001;48.87406500;9.59633600;2022-11-20T05:40:00;6.77;;;5.13;;
1999;SDS011;1001;48.87406500;9.59633600;2022-11-20T05:42:31;6.10;;;4.50;;
1999;SDS011;1001;48.87406500;9.59633600;2022-11-20T05:44:59;5.60;;;4.73;;
1999;SDS011;1001;48.87406500;9.59633600;2022-11-20T05:47:27;5.17;;;4.23;;
1999;SDS011;1001;48.87406500;9.59633600;2022-11-20T05:49:57;6.20;;;4.33;;
1999;SDS011;1001;48.87406500;9.59633600;2022-11-20T05:52:24;5.87;;;4.53;;
1999;SDS011;1001;48.87406500;9.59633600;2022-11-20T05:54:53;4.80;;;4.30;;
1999;SDS011;1001;48.87406500;9.59633600;2022-11-20T05:57:19;7.27;;;5.23;;
1999;SDS011;1001;48.87406500;9.59633600;2022-11-20T05:59:47;4.10;;;3.80;;
1999;SDS011;1001;48.87406500;9.59633600;2022-11-20T06:02:14;6.07;;;4.23;;
1999;SDS011;1001;48.87406500;9.59633600;2022-11-20T06:04:41;4.43;;;4.03;;
1999;SDS011;1001;48.87406500;9.59633600;2022-11-20T06:07:07;4.80;;;4.00;;
1999;SDS011;1001;48.87406500;9.59633600;2022-11-20T06:09:34;8.40;;;4.40;;
1999;SDS011;1001;48.87406500;9.59633600;2022-11-20T06:12:01;5.10;;;4.07;;
1999;SDS011;1001;48.87406500;9.59633600;2022-11-20T06:14:27;4.80;;;4.10;;
1999;SDS011;1001;48.87406500;9.59633600;2022-11-20T06:16:55;5.10;;;4.00;;
1999;SDS011;1001;48.87406500;9.59633600;2022-11-20T06:19:22;9.13;;;4.13;;
1999;SDS011;1001;48.87406500;9.59633600;2022-11-20T06:21:49;6.23;;;4.47;;
1999;SDS011;1001;48.87406500;9.59633600;2022-11-20T06:24:15;5.27;;;4.20;;
1999;SDS011;1001;48.87406500;9.59633600;2022-11-20T06:26:42;7.33;;;4.20;;
1999;SDS011;1001;48.87406500;9.59633600;2022-11-20T06:29:09;6.10;;;4.40;;
1999;SDS011;1001;48.87406500;9.59633600;2022-11-20T06:31:36;4.60;;;3.97;;
1999;SDS011;1001;48.87406500;9.59633600;2022-11-20T06:34:05;5.53;;;4.00;;
1999;SDS011;1001;48.87406500;9.59633600;2022-11-20T06:36:32;6.07;;;4.17;;
1999;SDS011;1001;48.87406500;9.59633600;2022-11-20T06:38:59;4.30;;;3.90;;
1999;SDS011;1001;48.87406500;9.59633600;2022-11-20T06:41:26;4.90;;;3.87;;
1999;SDS011;1001;48.87406500;9.59633600;2022-11-20T06:43:54;7.57;;;3.90;;
1999;SDS011;1001;48.87406500;9.59633600;2022-11-20T06:46:20;3.13;;;2.83;;
1999;SDS011;1001;48.87406500;9.59633600;2022-11-20T06:48:49;4.63;;;3.50;;
1999;SDS011;1001;48.87406500;9.59633600;2022-11-20T06:51:18;6.37;;;3.63;;
1999;SDS011;1001;48.87406500;9.59633600;2022-11-20T06:53:45;5.93;;;3.30;;
1999;SDS011;1001;48.87406500;9.59633600;2022-11-20T06:56:11;5.63;;;3.87;;
1999;SDS011;1001;48.87406500;9.59633600;2022-11-20T06:58:38;3.83;;;3.20;;
1999;SDS011;1001;48.87406500;9.59633600;2022-11-20T07:01:06;6.70;;;3.60;;
1999;SDS011;1001;48.87406500;9.59633600;2022-11-20T07:03:33;4.27;;;3.57;;
1999;SDS011;1001;48.87406500;9.59633600;2022-11-20T07:06:00;4.23;;;3.00;;
1999;SDS011;1001;48.87406500;9.59633600;2022-11-20T07:08:29;4.27;;;3.17;;
1999;SDS011;1001;48.87406500;9.59633600;2022-11-20T07:10:58;4.43;;;2.70;;
1999;SDS011;1001;48.87406500;9.59633600;2022-11-20T07:13:26;3.20;;;2.90;;
1999;SDS011;1001;48.87406500;9.59633600;2022-11-20T07:15:53;3.90;;;3.50;;
1999;SDS011;1001;48.87406500;9.59633600;2022-11-20T07:18:20;4.67;;;3.63;;
1999;SDS011;1001;48.87406500;9.59633600;2022-11-20T07:20:47;5.13;;;3.10;;
1999;SDS011;1001;48.87406500;9.59633600;2022-11-20T07:23:14;5.10;;;3.50;;
1999;SDS011;1001;48.87406500;9.59633600;2022-11-20T07:25:42;4.03;;;3.60;;
1999;SDS011;1001;48.87406500;9.59633600;2022-11-20T07:28:10;3.50;;;3.10;;
1999;SDS011;1001;48.87406500;9.59633600;2022-11-20T07:30:37;4.43;;;3.40;;
1999;SDS011;1001;48.87406500;9.59633600;2022-11-20T07:33:04;4.53;;;3.60;;
1999;SDS011;1001;48.87406500;9.59633600;2022-11-20T07:35:31;3.90;;;3.40;;
1999;SDS011;1001;48.87406500;9.59633600;2022-11-20T07:37:58;2.70;;;2.50;;
1999;SDS011;1001;48.87406500;9.59633600;2022-11-20T07:40:24;5.10;;;3.40;;
1999;SDS011;1001;48.87406500;9.59633600;2022-11-20T07:42:53;3.63;;;3.00;;
1999;SDS011;1001;48.87406500;9.59633600;2022-11-20T07:45:21;8.00;;;3.37;;
1999;SDS011;1001;48.87406500;9.59633600;2022-11-20T07:47:49;4.20;;;3.20;;
1999;SDS011;1001;48.87406500;9.59633600;2022-11-20T07:50:16;3.50;;;2.70;;
1999;SDS011;1001;48.87406500;9.59633600;2022-11-20T07:52:43;4.90;;;3.63;;
1999;SDS011;1001;48.87406500;9.59633600;2022-11-20T07:55:10;4.30;;;3.40;;
1999;SDS011;1001;48.87406500;9.59633600;2022-11-20T07:57:37;4.73;;;3.43;;
1999;SDS011;1001;48.87406500;9.59633600;2022-11-20T08:00:06;5.37;;;3.70;;
1999;SDS011;1001;48.87406500;9.59633600;2022-11-20T08:02:36;4.90;;;3.27;;
1999;SDS011;1001;48.87406500;9.59633600;2022-11-20T08:05:04;3.20;;;2.90;;
1999;SDS011;1001;48.87406500;9.59633600;2022-11-20T08:07:34;2.90;;;2.50;;
1999;SDS011;1001;48.87406500;9.59633600;2022-11-20T08:10:02;3.07;;;2.77;;
1999;SDS011;1001;48.87406500;9.59633600;2022-11-20T08:12:28;4.03;;;2.90;;
1999;SDS011;1001;48.87406500;9.59633600;2022-11-20T08:15:14;3.60;;;3.10;;
1999;SDS011;1001;48.87406500;9.59633600;2022-11-20T08:17:40;4.40;;;3.27;;
1999;SDS011;1001;48.87406500;9.59633600;2022-11-20T08:20:13;4.43;;;3.43;;
1999;SDS011;1001;48.87406500;9.59633600;2022-11-20T08:22:46;4.07;;;3.47;;
1999;SDS011;1001;48.87406500;9.59633600;2022-11-20T08:25:27;2.80;;;2.57;;
1999;SDS011;1001;48.87406500;9.59633600;2022-11-20T08:38:46;3.80;;;2.80;;
1999;SDS011;1001;48.87406500;9.59633600;2022-11-20T08:42:25;4.10;;;3.43;;
1999;SDS011;1001;48.87406500;9.59633600;2022-11-20T09:05:05;5.70;;;3.63;;
1999;SDS011;1001;48.87406500;9.59633600;2022-11-20T09:21:36;3.90;;;3.03;;
1999;SDS011;1001;48.87406500;9.59633600;2022-11-20T09:25:34;5.03;;;3.80;;
1999;SDS011;1001;48.87406500;9.59633600;2022-11-20T10:09:11;5.97;;;3.50;;
1999;SDS011;1001;48.87406500;9.59633600;2022-11-20T11:02:49;3.33;;;2.67;;
1999;SDS011;1001;48.87406500;9.59633600;2022-11-20T11:05:02;3.43;;;2.40;;
1999;SDS011;1001;48.87406500;9.59633600;2022-11-20T11:08:00;3.60;;;2.50;;
1999;SDS011;1001;48.87406500;9.59633600;2022-11-20T11:13:41;2.97;;;2.70;;
1999;SDS011;1001;48.87406500;9.59633600;2022-11-20T11:14:24;2.23;;;1.90;;
1999;SDS011;1001;48.87406500;9.59633600;2022-11-20T11:17:25;2.87;;;2.50;;
1999;SDS011;1001;48.87406500;9.59633600;2022-11-20T11:20:30;3.10;;;2.80;;
1999;SDS011;1001;48.87406500;9.59633600;2022-11-20T11:23:41;5.10;;;2.33;;
1999;SDS011;1001;48.87406500;9.59633600;2022-11-20T11:26:41;2.70;;;2.33;;
1999;SDS011;1001;48.87406500;9.59633600;2022-11-20T11:30:14;2.83;;;2.13;;
1999;SDS011;1001;48.87406500;9.59633600;2022-11-20T11:33:25;2.50;;;2.17;;
1999;SDS011;1001;48.87406500;9.59633600;2022-11-20T11:36:27;3.40;;;2.50;;
1999;SDS011;1001;48.87406500;9.59633600;2022-11-20T11:38:57;3.50;;;2.40;;
1999;SDS011;1001;48.87406500;9.59633600;2022-11-20T11:45:18;4.17;;;3.40;;
1999;SDS011;1001;48.87406500;9.59633600;2022-11-20T11:49:08;7.20;;;3.50;;
1999;SDS011;1001;48.87406500;9.59633600;2022-11-20T12:01:28;4.00;;;3.60;;
1999;SDS011;1001;48.87406500;9.59633600;2022-11-20T12:04:13;4.33;;;3.93;;
1999;SDS011;1001;48.87406500;9.59633600;2022-11-20T12:07:10;5.23;;;3.90;;
1999;SDS011;1001;48.87406500;9.59633600;2022-11-20T12:17:11;3.00;;;2.80;;
1999;SDS011;1001;48.87406500;9.59633600;2022-11-20T12:30:58;3.47;;;3.10;;
1999;SDS011;1001;48.87406500;9.59633600;2022-11-20T12:37:36;4.27;;;3.87;;
1999;SDS011;1001;48.87406500;9.59633600;2022-11-20T12:40:40;4.00;;;3.60;;
1999;SDS011;1001;48.87406500;9.59633600;2022-11-20T12:43:16;3.10;;;2.80;;
1999;SDS011;1001;48.87406500;9.59633600;2022-11-20T12:46:10;3.80;;;3.50;;
1999;SDS011;1001;48.87406500;9.59633600;2022-11-20T12:54:50;3.90;;;3.20;;
1999;SDS011;1001;48.87406500;9.59633600;2022-11-20T12:57:29;6.13;;;3.47;;
1999;SDS011;1001;48.87406500;9.59633600;2022-11-20T13:00:10;4.60;;;2.80;;
1999;SDS011;1001;48.87406500;9.59633600;2022-11-20T13:02:56;3.37;;;3.00;;
1999;SDS011;1001;48.87406500;9.59633600;2022-11-20T13:05:35;3.37;;;2.40;;
1999;SDS011;1001;48.87406500;9.59633600;2022-11-20T13:08:12;2.70;;;2.50;;
1999;SDS011;1001;48.87406500;9.59633600;2022-11-20T13:10:49;2.87;;;2.60;;
1999;SDS011;1001;48.87406500;9.59633600;2022-11-20T13:13:29;3.23;;;2.83;;
1999;SDS011;1001;48.87406500;9.59633600;2022-11-20T13:16:32;2.57;;;2.30;;
1999;SDS011;1001;48.87406500;9.59633600;2022-11-20T13:19:24;2.67;;;2.03;;
1999;SDS011;1001;48.87406500;9.59633600;2022-11-20T13:22:42;4.47;;;2.37;;
1999;SDS011;1001;48.87406500;9.59633600;2022-11-20T13:32:14;3.70;;;1.80;;
1999;SDS011;1001;48.87406500;9.59633600;2022-11-20T13:35:03;2.30;;;1.37;;
1999;SDS011;1001;48.87406500;9.59633600;2022-11-20T13:37:46;1.60;;;1.50;;
1999;SDS011;1001;48.87406500;9.59633600;2022-11-20T13:40:33;1.67;;;1.10;;
1999;SDS011;1001;48.87406500;9.59633600;2022-11-20T13:43:05;2.53;;;1.10;;
1999;SDS011;1001;48.87406500;9.59633600;2022-11-20T13:45:42;1.40;;;1.30;;
1999;SDS011;1001;48.87406500;9.59633600;2022-11-20T13:48:24;3.93;;;1.27;;
1999;SDS011;1001;48.87406500;9.59633600;2022-11-20T13:51:07;1.30;;;1.00;;
1999;SDS011;1001;48.87406500;9.59633600;2022-11-20T13:53:52;1.93;;;0.87;;
1999;SDS011;1001;48.87406500;9.59633600;2022-11-20T13:56:46;5.73;;;1.30;;
1999;SDS011;1001;48.87406500;9.59633600;2022-11-20T13:59:39;2.10;;;0.90;;
1999;SDS011;1001;48.87406500;9.59633600;2022-11-20T14:02:18;2.60;;;1.00;;
1999;SDS011;1001;48.87406500;9.59633600;2022-11-20T14:04:49;2.20;;;1.40;;
1999;SDS011;1001;48.87406500;9.59633600;2022-11-20T14:07:20;1.87;;;1.20;;
1999;SDS011;1001;48.87406500;9.59633600;2022-11-20T14:09:50;2.07;;;1.50;;
1999;SDS011;1001;48.87406500;9.59633600;2022-11-20T14:12:19;1.60;;;1.07;;
1999;SDS011;1001;48.87406500;9.59633600;2022-11-20T14:14:48;6.00;;;1.33;;
1999;SDS011;1001;48.87406500;9.59633600;2022-11-20T14:17:19;1.30;;;1.10;;
1999;SDS011;1001;48.87406500;9.59633600;2022-11-20T14:19:47;2.77;;;1.20;;
1999;SDS011;1001;48.87406500;9.59633600;2022-11-20T14:22:17;2.60;;;1.00;;
1999;SDS011;1001;48.87406500;9.59633600;2022-11-20T14:24:46;3.27;;;1.70;;
1999;SDS011;1001;48.87406500;9.59633600;2022-11-20T14:27:13;3.20;;;1.87;;
1999;SDS011;1001;48.87406500;9.59633600;2022-11-20T14:29:43;4.63;;;2.00;;
1999;SDS011;1001;48.87406500;9.59633600;2022-11-20T14:32:14;2.93;;;1.47;;
1999;SDS011;1001;48.87406500;9.59633600;2022-11-20T14:34:47;3.20;;;1.10;;
1999;SDS011;1001;48.87406500;9.59633600;2022-11-20T14:37:17;5.63;;;1.57;;
1999;SDS011;1001;48.87406500;9.59633600;2022-11-20T14:39:50;2.20;;;1.37;;
1999;SDS011;1001;48.87406500;9.59633600;2022-11-20T14:42:19;4.97;;;1.37;;
1999;SDS011;1001;48.87406500;9.59633600;2022-11-20T14:44:47;2.63;;;1.13;;
1999;SDS011;1001;48.87406500;9.59633600;2022-11-20T14:47:17;1.37;;;1.00;;
1999;SDS011;1001;48.87406500;9.59633600;2022-11-20T14:49:49;1.37;;;0.80;;
1999;SDS011;1001;48.87406500;9.59633600;2022-11-20T14:52:18;1.33;;;0.83;;
1999;SDS011;1001;48.87406500;9.59633600;2022-11-20T14:54:47;2.00;;;1.00;;
1999;SDS011;1001;48.87406500;9.59633600;2022-11-20T14:57:22;3.30;;;1.00;;
1999;SDS011;1001;48.87406500;9.59633600;2022-11-20T14:59:50;1.47;;;0.80;;
1999;SDS011;1001;48.87406500;9.59633600;2022-11-20T15:02:17;1.63;;;0.83;;
1999;SDS011;1001;48.87406500;9.59633600;2022-11-20T15:04:45;2.07;;;1.40;;
1999;SDS011;1001;48.87406500;9.59633600;2022-11-20T15:07:24;3.33;;;1.40;;
1999;SDS011;1001;48.87406500;9.59633600;2022-11-20T15:10:01;2.43;;;1.20;;
1999;SDS011;1001;48.87406500;9.59633600;2022-11-20T15:12:29;3.33;;;1.13;;
1999;SDS011;1001;48.87406500;9.59633600;2022-11-20T15:14:56;1.70;;;1.20;;
1999;SDS011;1001;48.87406500;9.59633600;2022-11-20T15:17:23;3.40;;;1.60;;
1999;SDS011;1001;48.87406500;9.59633600;2022-11-20T15:19:52;3.10;;;1.23;;
1999;SDS011;1001;48.87406500;9.59633600;2022-11-20T15:22:23;2.60;;;1.50;;
1999;SDS011;1001;48.87406500;9.59633600;2022-11-20T15:24:50;4.93;;;1.37;;
1999;SDS011;1001;48.87406500;9.59633600;2022-11-20T15:27:16;2.47;;;1.77;;
1999;SDS011;1001;48.87406500;9.59633600;2022-11-20T15:29:43;3.13;;;1.07;;
1999;SDS011;1001;48.87406500;9.59633600;2022-11-20T15:32:10;5.00;;;1.70;;
1999;SDS011;1001;48.87406500;9.59633600;2022-11-20T15:34:36;4.60;;;1.73;;
1999;SDS011;1001;48.87406500;9.59633600;2022-11-20T15:37:03;3.80;;;1.80;;
1999;SDS011;1001;48.87406500;9.59633600;2022-11-20T15:39:31;3.40;;;2.30;;
1999;SDS011;1001;48.87406500;9.59633600;2022-11-20T15:41:58;3.30;;;1.63;;
1999;SDS011;1001;48.87406500;9.59633600;2022-11-20T15:44:25;2.20;;;1.53;;
1999;SDS011;1001;48.87406500;9.59633600;2022-11-20T15:46:51;4.60;;;1.90;;
1999;SDS011;1001;48.87406500;9.59633600;2022-11-20T15:49:18;3.97;;;1.37;;
1999;SDS011;1001;48.87406500;9.59633600;2022-11-20T15:51:47;2.00;;;1.20;;
1999;SDS011;1001;48.87406500;9.59633600;2022-11-20T15:54:15;2.53;;;2.00;;
1999;SDS011;1001;48.87406500;9.59633600;2022-11-20T15:56:46;3.10;;;1.40;;
1999;SDS011;1001;48.87406500;9.59633600;2022-11-20T15:59:13;3.87;;;1.37;;
1999;SDS011;1001;48.87406500;9.59633600;2022-11-20T16:01:40;4.67;;;1.50;;
1999;SDS011;1001;48.87406500;9.59633600;2022-11-20T16:04:09;2.60;;;1.47;;
1999;SDS011;1001;48.87406500;9.59633600;2022-11-20T16:06:37;1.83;;;1.37;;
1999;SDS011;1001;48.87406500;9.59633600;2022-11-20T16:09:04;2.20;;;1.40;;
1999;SDS011;1001;48.87406500;9.59633600;2022-11-20T16:11:30;3.10;;;1.57;;
1999;SDS011;1001;48.87406500;9.59633600;2022-11-20T16:13:58;4.80;;;1.80;;
1999;SDS011;1001;48.87406500;9.59633600;2022-11-20T16:16:42;2.83;;;1.53;;
1999;SDS011;1001;48.87406500;9.59633600;2022-11-20T16:19:10;2.00;;;1.50;;
1999;SDS011;1001;48.87406500;9.59633600;2022-11-20T16:21:37;1.70;;;1.13;;
1999;SDS011;1001;48.87406500;9.59633600;2022-11-20T16:24:06;5.93;;;1.97;;
1999;SDS011;1001;48.87406500;9.59633600;2022-11-20T16:26:35;2.37;;;1.80;;
1999;SDS011;1001;48.87406500;9.59633600;2022-11-20T16:29:04;3.37;;;1.70;;
1999;SDS011;1001;48.87406500;9.59633600;2022-11-20T16:31:32;5.43;;;1.33;;
1999;SDS011;1001;48.87406500;9.59633600;2022-11-20T16:34:00;3.50;;;1.80;;
1999;SDS011;1001;48.87406500;9.59633600;2022-11-20T16:36:28;1.17;;;1.07;;
1999;SDS011;1001;48.87406500;9.59633600;2022-11-20T16:38:56;2.47;;;1.80;;
1999;SDS011;1001;48.87406500;9.59633600;2022-11-20T16:41:24;2.00;;;1.50;;
1999;SDS011;1001;48.87406500;9.59633600;2022-11-20T16:43:52;1.60;;;1.50;;
1999;SDS011;1001;48.87406500;9.59633600;2022-11-20T16:46:24;2.57;;;1.63;;
1999;SDS011;1001;48.87406500;9.59633600;2022-11-20T16:48:52;3.10;;;1.50;;
1999;SDS011;1001;48.87406500;9.59633600;2022-11-20T16:51:20;3.10;;;1.90;;
1999;SDS011;1001;48.87406500;9.59633600;2022-11-20T16:53:47;1.87;;;1.40;;
1999;SDS011;1001;48.87406500;9.59633600;2022-11-20T16:56:15;2.43;;;1.50;;
1999;SDS011;1001;48.87406500;9.59633600;2022-11-20T16:58:46;2.77;;;2.00;;
1999;SDS011;1001;48.87406500;9.59633600;2022-11-20T17:01:14;2.83;;;1.70;;